Terminal Aerodrome Forecast
Issued by NWS Wilmington, OH

Current Version | Previous Version | Graphics & Text | Print | Product List | Glossary On
Versions: 1 2 3 4 5 6 7 8 9 10 11 12 13
625
FTUS41 KILN 181720
TAFDAY
TAF
KDAY 181720Z 1818/1918 19009KT P6SM SKC
     FM190100 19005KT P6SM SKC
     FM191500 22010KT P6SM SKC=

USA.gov is the U.S. government's official web portal to all federal, state and local government web resources and services.